Terminal Aerodrome Forecast
Issued by NWS Sterling, VA

Home | Current Version | Previous Version | Text Only | Print | Product List | Glossary On
Versions: 1 2 3 4 5 6 7 8 9 10 11 12 13 14 15 16 17 18 19 20 21
000
FTUS41 KLWX 070527
TAFCHO
TAF
KCHO 070527Z 0706/0806 00000KT 5SM BR BKN150
     FM070900 00000KT 3SM BR BKN150
     FM071300 VRB03KT P6SM BKN090
     FM072000 12005KT P6SM SCT045
     FM080000 00000KT P6SM SCT060=

USA.gov is the U.S. government's official web portal to all federal, state and local government web resources and services.